Portada
METAR-TAF:

METAR-TAF

Aeropuertos :

Valencia, Venezuela

Aeropuerto Internacional Arturo Michelena

latitud: 10-10N, longitud: 067-56W, altitud: 430 m

Observación

El informe se hizo hace 19 minutos, a las 15:00 UTC
Temperatura 29°C
Humedad 48%
Presión 1015 hPa
Visibilidad 10 km o más
Escasas nubes a una altura de 1600 ft

METAR: SVVA 111500Z /////KT 9999 FEW016 29/17 Q1015

Hora: 11:19 (15:19 UTC)

Pronóstico

El informe se hizo hace 4 horas y 19 minutos, a las 11:00 UTC
Pronóstico válido del 11 a las 12 UTC al 12 a las 12 UTC
Viento 2 kt del este
Visibilidad 10 km o más
Escasas nubes a una altura de 2000 ft
Temporalmente
del 11 a las 12 UTC al 11 a las 16 UTC
Viento 4 kt del sureste
Visibilidad 10 km o más
Nubes dispersas a una altura de 2000 ft

TAF: SVVA 111100Z 1112/1212 09002KT 9999 FEW020 TEMPO 1112/1116 14004KT 9999 SCT020 TX33/20 TN21/10Z

Observaciones y pronósticos meteorológicos de más de 4000 aeropuertos (mensajes METAR y TAF).

Los puntos amarillos y rojos representan las estaciones disponibles.

Ponga el ratón en el punto deseado para ver el nombre de la estación.

Haga clic para ver las observaciones y los pronósticos meteorológicos.

Para cambiar el mapa : haga clic en los botones verdes con una cruz de color negro para hacer un zoom, en el botón verde con un guión para alejar o en las flechas verdes para mapas adyacentes.


METAR-TAF: